createdAt,value
2019-04-30T00:02:34.393Z,4.17
2019-04-30T00:05:32.285Z,3.55
2019-04-30T00:08:39.107Z,3.55
2019-04-30T00:11:41.044Z,4.97
2019-04-30T00:14:44.880Z,3.37
2019-04-30T00:17:52.828Z,4.47
2019-04-30T00:20:55.182Z,3.43
2019-04-30T00:24:00.742Z,3.80
2019-04-30T00:27:04.992Z,3.80
2019-04-30T00:30:09.164Z,4.40
2019-04-30T00:33:15.209Z,4.10
2019-04-30T00:36:17.392Z,3.95
2019-04-30T00:39:20.796Z,3.70
2019-04-30T00:42:26.794Z,4.00
2019-04-30T00:45:30.160Z,3.50
2019-04-30T00:48:33.453Z,3.90
2019-04-30T00:51:36.856Z,3.27
2019-04-30T00:54:40.049Z,3.90
2019-04-30T00:57:44.106Z,3.77
2019-04-30T01:00:59.749Z,3.65
2019-04-30T01:04:09.061Z,3.70
2019-04-30T01:07:12.986Z,3.62
2019-04-30T01:10:19.630Z,3.77
2019-04-30T01:13:21.337Z,3.97
2019-04-30T01:16:30.158Z,4.13
2019-04-30T01:19:32.253Z,3.72
2019-04-30T01:22:34.613Z,3.37
2019-04-30T01:25:38.870Z,3.27
2019-04-30T01:28:42.433Z,4.17
2019-04-30T01:31:45.630Z,3.17
2019-04-30T01:34:53.799Z,4.07
2019-04-30T01:37:55.054Z,3.47
2019-04-30T01:40:59.592Z,4.00
2019-04-30T01:44:03.819Z,4.10
2019-04-30T01:47:08.977Z,3.97
2019-04-30T01:50:12.232Z,3.73
2019-04-30T01:53:15.473Z,3.87
2019-04-30T01:56:44.913Z,4.40
2019-04-30T02:00:09.655Z,3.93
2019-04-30T02:03:12.501Z,3.67
2019-04-30T02:06:15.820Z,3.60
2019-04-30T02:09:20.667Z,3.80
2019-04-30T02:12:24.148Z,3.37
2019-04-30T02:15:29.039Z,3.70
2019-04-30T02:18:32.288Z,4.10
2019-04-30T02:21:35.472Z,4.50
2019-04-30T02:24:38.716Z,3.77
2019-04-30T02:27:41.860Z,3.93
2019-04-30T02:30:44.910Z,4.03
2019-04-30T02:33:52.522Z,3.70
2019-04-30T02:37:02.973Z,3.93
2019-04-30T02:40:06.988Z,4.37
2019-04-30T02:43:10.804Z,4.17
2019-04-30T02:46:15.481Z,4.10
2019-04-30T02:49:20.318Z,4.30
2019-04-30T02:52:26.271Z,4.67
2019-04-30T02:55:42.054Z,3.47
2019-04-30T02:58:45.110Z,4.17
2019-04-30T03:01:50.125Z,3.90
2019-04-30T03:04:53.266Z,4.37
2019-04-30T03:07:56.333Z,4.77
2019-04-30T03:11:00.063Z,4.63
2019-04-30T03:14:03.842Z,4.27
2019-04-30T03:17:39.445Z,4.70
2019-04-30T03:20:49.756Z,4.47
2019-04-30T03:23:52.816Z,4.37
2019-04-30T03:26:56.101Z,4.53
2019-04-30T03:30:00.363Z,4.87
2019-04-30T03:33:03.610Z,4.67
2019-04-30T03:36:11.961Z,4.30
2019-04-30T03:39:12.835Z,4.60
2019-04-30T03:46:50.910Z,4.83
2019-04-30T03:49:54.103Z,5.47
2019-04-30T03:53:00.167Z,5.70
2019-04-30T03:56:03.329Z,4.80
2019-04-30T03:59:06.614Z,5.17
2019-04-30T04:02:23.893Z,5.97
2019-04-30T04:05:49.851Z,5.63
2019-04-30T04:09:00.033Z,5.90
2019-04-30T04:12:21.393Z,5.67
2019-04-30T04:15:24.482Z,5.23
2019-04-30T04:18:30.075Z,5.47
2019-04-30T04:21:32.568Z,5.90
2019-04-30T04:24:35.557Z,6.40
2019-04-30T04:27:39.305Z,5.77
2019-04-30T04:30:42.985Z,5.17
2019-04-30T04:33:46.212Z,6.23
2019-04-30T04:36:50.739Z,5.53
2019-04-30T04:39:54.202Z,6.07
2019-04-30T04:42:57.227Z,5.73
2019-04-30T04:46:00.283Z,6.23
2019-04-30T04:49:03.507Z,6.47
2019-04-30T04:52:06.581Z,5.10
2019-04-30T04:55:10.133Z,5.97
2019-04-30T04:58:13.495Z,6.30
2019-04-30T05:01:16.865Z,5.60
2019-04-30T05:04:20.168Z,5.67
2019-04-30T05:07:23.465Z,5.57
2019-04-30T05:10:29.207Z,4.90
2019-04-30T05:13:34.628Z,4.63
2019-04-30T05:16:38.905Z,4.17
2019-04-30T05:19:42.184Z,4.27
2019-04-30T05:22:45.385Z,4.30
2019-04-30T05:25:49.159Z,4.00
2019-04-30T05:28:54.327Z,4.10
2019-04-30T05:31:58.559Z,3.80
2019-04-30T05:35:02.094Z,4.57
2019-04-30T05:38:05.245Z,4.07
2019-04-30T05:41:09.334Z,3.90
2019-04-30T05:44:12.804Z,4.10
2019-04-30T05:47:15.960Z,3.92
2019-04-30T05:50:20.007Z,3.77
2019-04-30T05:53:23.164Z,3.40
2019-04-30T05:56:26.502Z,3.60
2019-04-30T05:59:29.800Z,3.25
2019-04-30T06:02:34.121Z,3.42
2019-04-30T06:05:43.461Z,3.35
2019-04-30T06:09:04.633Z,3.35
2019-04-30T06:12:22.821Z,3.70
2019-04-30T06:15:36.354Z,2.98
2019-04-30T06:18:42.168Z,3.05
2019-04-30T06:21:44.661Z,3.10
2019-04-30T06:24:49.468Z,3.08
2019-04-30T06:27:53.822Z,2.80
2019-04-30T06:30:59.024Z,2.75
2019-04-30T06:34:02.252Z,2.60
2019-04-30T06:37:05.363Z,2.70
2019-04-30T06:40:11.482Z,2.92
2019-04-30T06:43:13.901Z,2.58
2019-04-30T06:46:18.700Z,2.47
2019-04-30T06:49:24.430Z,2.67
2019-04-30T06:52:29.227Z,2.55
2019-04-30T06:55:32.549Z,2.40
2019-04-30T06:58:35.619Z,2.40
2019-04-30T07:01:38.929Z,2.60
2019-04-30T07:04:41.997Z,2.30
2019-04-30T07:08:09.053Z,2.60
2019-04-30T07:11:26.174Z,2.10
2019-04-30T07:14:29.469Z,2.20
2019-04-30T07:17:32.768Z,2.10
2019-04-30T07:20:36.065Z,2.05
2019-04-30T07:23:39.241Z,2.55
2019-04-30T07:26:42.398Z,2.30
2019-04-30T07:29:45.716Z,2.77
2019-04-30T07:32:48.983Z,2.10
2019-04-30T07:35:54.325Z,2.05
2019-04-30T07:38:59.970Z,2.20
2019-04-30T07:42:02.642Z,2.20
2019-04-30T07:45:05.935Z,2.17
2019-04-30T07:48:09.460Z,2.90
2019-04-30T07:51:12.987Z,2.02
2019-04-30T07:54:16.542Z,1.80
2019-04-30T07:57:19.737Z,2.20
2019-04-30T08:00:23.086Z,2.00
2019-04-30T08:03:51.914Z,2.10
2019-04-30T08:06:56.144Z,1.90
2019-04-30T08:09:59.345Z,1.98
2019-04-30T08:13:10.014Z,2.00
2019-04-30T08:16:09.660Z,2.15
2019-04-30T08:19:13.549Z,1.85
2019-04-30T08:22:19.449Z,1.82
2019-04-30T08:25:25.215Z,2.10
2019-04-30T08:28:30.393Z,2.00
2019-04-30T08:31:34.330Z,1.95
2019-04-30T08:34:39.385Z,2.00
2019-04-30T08:37:43.879Z,2.05
2019-04-30T08:40:56.075Z,1.70
2019-04-30T08:43:53.449Z,2.10
2019-04-30T08:46:59.043Z,2.33
2019-04-30T08:50:03.018Z,2.08
2019-04-30T08:53:06.550Z,2.20
2019-04-30T08:56:10.103Z,2.20
2019-04-30T08:59:13.336Z,2.60
2019-04-30T09:02:16.743Z,5.58
2019-04-30T09:05:28.155Z,2.10
2019-04-30T09:08:31.735Z,4.30
2019-04-30T09:11:49.011Z,1.92
2019-04-30T09:14:40.594Z,2.35
2019-04-30T09:17:44.086Z,2.90
2019-04-30T09:20:49.363Z,2.00
2019-04-30T09:23:52.909Z,2.50
2019-04-30T09:26:56.226Z,2.40
2019-04-30T09:29:59.287Z,2.95
2019-04-30T09:33:02.581Z,2.80
2019-04-30T09:36:05.709Z,2.08
2019-04-30T09:39:09.069Z,2.10
2019-04-30T09:42:12.677Z,2.08
2019-04-30T09:45:15.778Z,3.67
2019-04-30T09:48:19.267Z,8.83
2019-04-30T09:51:24.717Z,5.35
2019-04-30T09:55:05.113Z,2.50
2019-04-30T09:58:16.206Z,2.40
2019-04-30T10:01:13.453Z,2.80
2019-04-30T10:04:17.116Z,2.30
2019-04-30T10:07:21.913Z,2.60
2019-04-30T10:10:30.437Z,2.10
2019-04-30T10:13:34.525Z,2.58
2019-04-30T10:16:59.637Z,8.05
2019-04-30T10:20:03.136Z,2.45
2019-04-30T10:23:06.309Z,2.70
2019-04-30T10:26:09.546Z,2.17
2019-04-30T10:29:12.811Z,4.08
2019-04-30T10:32:16.133Z,3.02
2019-04-30T10:35:20.372Z,2.77
2019-04-30T10:38:23.918Z,2.50
2019-04-30T10:41:28.743Z,2.55
2019-04-30T10:44:32.153Z,2.20
2019-04-30T10:47:35.381Z,2.27
2019-04-30T10:50:41.309Z,2.25
2019-04-30T10:53:44.604Z,2.83
2019-04-30T10:56:51.343Z,2.33
2019-04-30T10:59:54.374Z,2.40
2019-04-30T11:02:59.247Z,2.45
2019-04-30T11:06:02.506Z,2.20
2019-04-30T11:09:07.336Z,2.37
2019-04-30T11:12:10.565Z,2.45
2019-04-30T11:15:14.035Z,2.42
2019-04-30T11:18:17.315Z,2.40
2019-04-30T11:21:20.829Z,1.98
2019-04-30T11:24:35.911Z,3.37
2019-04-30T11:27:30.587Z,2.50
2019-04-30T11:30:34.553Z,2.02
2019-04-30T11:33:37.972Z,2.37
2019-04-30T11:36:41.318Z,1.80
2019-04-30T11:39:44.821Z,2.40
2019-04-30T11:42:48.054Z,2.58
2019-04-30T11:46:39.340Z,2.17
2019-04-30T11:49:42.448Z,2.27
2019-04-30T11:52:45.661Z,2.08
2019-04-30T11:55:49.152Z,2.40
2019-04-30T11:58:52.632Z,2.45
2019-04-30T12:01:57.524Z,2.22
2019-04-30T12:05:00.767Z,2.40
2019-04-30T12:08:15.417Z,2.50
2019-04-30T12:11:26.550Z,2.17
2019-04-30T12:14:29.809Z,2.10
2019-04-30T12:17:32.894Z,2.05
2019-04-30T12:20:35.994Z,2.20
2019-04-30T12:23:39.080Z,2.27
2019-04-30T12:26:43.273Z,3.10
2019-04-30T12:29:46.397Z,2.27
2019-04-30T12:32:49.528Z,2.30
2019-04-30T12:35:52.680Z,2.00
2019-04-30T12:38:55.881Z,2.20
2019-04-30T12:42:01.977Z,2.45
2019-04-30T12:45:04.706Z,2.10
2019-04-30T12:48:13.277Z,2.55
2019-04-30T12:51:45.606Z,2.45
2019-04-30T12:55:15.271Z,2.05
2019-04-30T12:58:13.001Z,2.30
2019-04-30T13:01:16.396Z,2.50
2019-04-30T13:04:19.606Z,2.37
2019-04-30T13:07:23.313Z,2.27
2019-04-30T13:10:27.455Z,2.20
2019-04-30T13:13:32.225Z,2.00
2019-04-30T13:16:36.794Z,2.20
2019-04-30T13:19:39.883Z,2.30
2019-04-30T13:22:44.394Z,2.33
2019-04-30T13:25:51.394Z,1.90
2019-04-30T13:28:59.762Z,2.10
2019-04-30T13:32:02.909Z,2.27
2019-04-30T13:35:06.216Z,2.72
2019-04-30T13:38:20.313Z,2.17
2019-04-30T13:41:38.684Z,2.83
2019-04-30T13:44:41.892Z,2.40
2019-04-30T13:47:46.215Z,2.85
2019-04-30T13:50:49.320Z,2.40
2019-04-30T13:53:53.675Z,2.22
2019-04-30T13:56:56.761Z,2.30
2019-04-30T13:59:59.953Z,2.22
2019-04-30T14:03:10.040Z,2.00
2019-04-30T14:06:15.537Z,2.00
2019-04-30T14:09:24.172Z,1.95
2019-04-30T14:12:28.201Z,2.08
2019-04-30T14:15:31.359Z,1.85
2019-04-30T14:18:35.025Z,1.92
2019-04-30T14:21:39.633Z,2.00
2019-04-30T14:24:42.925Z,2.20
2019-04-30T14:27:51.756Z,1.87
2019-04-30T14:30:51.160Z,1.75
2019-04-30T14:33:54.213Z,2.10
2019-04-30T14:36:59.374Z,2.00
2019-04-30T14:40:03.352Z,1.60
2019-04-30T14:43:32.695Z,1.80
2019-04-30T14:46:45.785Z,2.20
2019-04-30T14:50:09.745Z,1.87
2019-04-30T14:53:43.771Z,2.58
2019-04-30T14:56:55.745Z,2.35
2019-04-30T15:00:32.014Z,2.08
2019-04-30T15:03:35.641Z,1.67
2019-04-30T15:06:38.673Z,1.70
2019-04-30T15:09:41.801Z,1.77
2019-04-30T15:12:44.994Z,1.87
2019-04-30T15:15:49.148Z,1.95
2019-04-30T15:18:52.572Z,1.60
2019-04-30T15:21:55.708Z,1.40
2019-04-30T15:24:59.244Z,1.42
2019-04-30T15:28:02.605Z,1.60
2019-04-30T15:31:05.797Z,1.67
2019-04-30T15:34:11.096Z,1.62
2019-04-30T15:37:21.647Z,1.10
2019-04-30T15:40:19.354Z,1.12
2019-04-30T15:43:22.641Z,1.67
2019-04-30T15:46:25.887Z,1.10
2019-04-30T15:49:29.035Z,1.25
2019-04-30T15:52:32.170Z,1.75
2019-04-30T15:55:35.222Z,1.77
2019-04-30T15:58:40.453Z,1.27
2019-04-30T16:01:46.573Z,1.90
2019-04-30T16:05:11.849Z,1.80
2019-04-30T16:08:42.294Z,1.70
2019-04-30T16:11:54.776Z,1.50
2019-04-30T16:14:58.012Z,1.55
2019-04-30T16:18:02.214Z,2.55
2019-04-30T16:21:06.454Z,1.65
2019-04-30T16:24:09.721Z,6.90
2019-04-30T16:27:13.170Z,2.37
2019-04-30T16:30:16.787Z,1.42
2019-04-30T16:33:20.069Z,1.40
2019-04-30T16:36:23.322Z,1.50
2019-04-30T16:39:28.640Z,2.47
2019-04-30T16:42:31.797Z,2.20
2019-04-30T16:45:35.156Z,1.60
2019-04-30T16:48:38.903Z,1.60
2019-04-30T16:51:42.165Z,1.52
2019-04-30T16:54:45.389Z,1.57
2019-04-30T16:57:50.642Z,2.05
2019-04-30T17:00:53.901Z,1.72
2019-04-30T17:04:02.630Z,2.12
2019-04-30T17:07:22.300Z,1.98
2019-04-30T17:10:33.285Z,1.32
2019-04-30T17:14:01.641Z,1.72
2019-04-30T17:17:05.614Z,2.10
2019-04-30T17:20:09.389Z,1.82
2019-04-30T17:23:12.595Z,1.52
2019-04-30T17:26:15.826Z,1.80
2019-04-30T17:29:19.480Z,1.90
2019-04-30T17:32:22.780Z,2.10
2019-04-30T17:35:26.023Z,1.90
2019-04-30T17:38:29.294Z,1.70
2019-04-30T17:41:32.613Z,1.70
2019-04-30T17:44:35.669Z,2.02
2019-04-30T17:47:38.962Z,1.82
2019-04-30T17:50:42.197Z,1.55
2019-04-30T17:54:03.249Z,1.80
2019-04-30T17:57:06.372Z,1.75
2019-04-30T18:00:18.787Z,1.75
2019-04-30T18:03:16.245Z,1.90
2019-04-30T18:06:19.586Z,1.70
2019-04-30T18:09:23.247Z,1.80
2019-04-30T18:12:26.449Z,2.10
2019-04-30T18:15:30.556Z,2.10
2019-04-30T18:18:43.808Z,2.20
2019-04-30T18:21:53.638Z,2.58
2019-04-30T18:25:21.861Z,2.22
2019-04-30T18:28:25.621Z,1.95
2019-04-30T18:31:29.834Z,2.08
2019-04-30T18:34:33.045Z,10.45
2019-04-30T18:37:36.160Z,41.20
2019-04-30T18:40:40.403Z,40.25
2019-04-30T18:43:45.220Z,27.10
2019-04-30T18:46:49.078Z,26.75
2019-04-30T18:49:52.293Z,20.43
2019-04-30T18:52:58.726Z,28.85
2019-04-30T18:56:01.866Z,35.38
2019-04-30T18:59:05.410Z,24.47
2019-04-30T19:02:11.096Z,8.10
2019-04-30T19:05:22.976Z,5.40
2019-04-30T19:08:39.456Z,6.37
2019-04-30T19:11:51.857Z,5.62
2019-04-30T19:15:17.036Z,7.05
2019-04-30T19:18:27.582Z,10.32
2019-04-30T19:21:30.811Z,9.38
2019-04-30T19:24:34.021Z,10.78
2019-04-30T19:27:37.101Z,8.45
2019-04-30T19:30:40.408Z,7.33
2019-04-30T19:33:43.485Z,7.10
2019-04-30T19:36:46.821Z,7.08
2019-04-30T19:39:51.176Z,5.67
2019-04-30T19:42:54.405Z,4.42
2019-04-30T19:45:59.221Z,5.08
2019-04-30T19:49:02.632Z,5.75
2019-04-30T19:52:08.912Z,5.40
2019-04-30T19:55:11.105Z,5.50
2019-04-30T19:58:25.255Z,5.37
2019-04-30T20:01:19.559Z,5.47
2019-04-30T20:04:32.619Z,4.55
2019-04-30T20:07:29.096Z,4.60
2019-04-30T20:10:32.517Z,4.03
2019-04-30T20:13:37.264Z,3.83
2019-04-30T20:16:40.754Z,3.90
2019-04-30T20:19:43.809Z,3.98
2019-04-30T20:22:51.937Z,3.83
2019-04-30T20:25:54.742Z,4.42
2019-04-30T20:28:59.008Z,4.33
2019-04-30T20:32:02.478Z,4.67
2019-04-30T20:35:06.031Z,4.85
2019-04-30T20:38:34.778Z,4.25
2019-04-30T20:41:39.593Z,4.25
2019-04-30T20:44:42.857Z,4.05
2019-04-30T20:47:47.227Z,4.00
2019-04-30T20:51:01.430Z,3.72
2019-04-30T20:54:04.825Z,3.90
2019-04-30T20:57:08.701Z,4.10
2019-04-30T21:00:14.017Z,4.45
2019-04-30T21:03:19.495Z,4.50
2019-04-30T21:06:22.354Z,4.60
2019-04-30T21:09:25.427Z,5.60
2019-04-30T21:12:28.852Z,5.22
2019-04-30T21:15:32.018Z,4.78
2019-04-30T21:18:35.206Z,4.05
2019-04-30T21:21:38.775Z,4.62
2019-04-30T21:24:43.207Z,4.75
2019-04-30T21:27:46.373Z,5.20
2019-04-30T21:30:49.620Z,4.85
2019-04-30T21:33:58.242Z,4.92
2019-04-30T21:37:01.585Z,3.75
2019-04-30T21:40:05.775Z,3.85
2019-04-30T21:43:09.410Z,3.70
2019-04-30T21:46:12.765Z,3.40
2019-04-30T21:49:16.000Z,3.05
2019-04-30T21:52:19.293Z,3.27
2019-04-30T21:55:22.549Z,3.60
2019-04-30T21:58:25.749Z,3.40
2019-04-30T22:01:29.542Z,3.45
2019-04-30T22:04:43.304Z,4.55
2019-04-30T22:07:52.389Z,3.95
2019-04-30T22:10:55.630Z,3.83
2019-04-30T22:13:59.129Z,4.47
2019-04-30T22:17:02.460Z,3.30
2019-04-30T22:20:07.345Z,3.92
2019-04-30T22:23:10.357Z,4.10
2019-04-30T22:26:13.446Z,4.08
2019-04-30T22:29:19.166Z,4.50
2019-04-30T22:32:22.541Z,4.10
2019-04-30T22:35:53.785Z,3.15
2019-04-30T22:39:22.309Z,2.85
2019-04-30T22:42:31.180Z,2.80
2019-04-30T22:45:40.541Z,2.77
2019-04-30T22:48:44.940Z,3.17
2019-04-30T22:51:48.049Z,3.30
2019-04-30T22:54:51.376Z,5.70
2019-04-30T22:57:54.516Z,5.03
2019-04-30T23:01:18.065Z,3.17
2019-04-30T23:04:31.084Z,3.87
2019-04-30T23:07:34.217Z,5.00
2019-04-30T23:10:37.404Z,5.50
2019-04-30T23:13:40.500Z,4.70
2019-04-30T23:16:43.695Z,4.35
2019-04-30T23:19:49.507Z,4.60
2019-04-30T23:22:51.930Z,4.80
2019-04-30T23:25:55.028Z,4.90
2019-04-30T23:28:58.118Z,5.20
2019-04-30T23:32:01.076Z,5.50
2019-04-30T23:35:04.397Z,5.80
2019-04-30T23:38:07.593Z,6.05
2019-04-30T23:41:10.693Z,6.28
2019-04-30T23:44:13.884Z,6.60
2019-04-30T23:47:17.086Z,6.53
2019-04-30T23:50:20.181Z,6.03
2019-04-30T23:53:23.409Z,6.17
2019-04-30T23:56:26.561Z,7.17
2019-04-30T23:59:29.865Z,6.42
